createdAt,value
2017-12-10T00:00:23.657Z,1002.96
2017-12-10T00:01:24.222Z,1002.87
2017-12-10T00:02:23.706Z,1002.9
2017-12-10T00:03:24.152Z,1002.94
2017-12-10T00:04:24.153Z,1002.94
2017-12-10T00:05:24.168Z,1002.86
2017-12-10T00:06:24.192Z,1002.82
2017-12-10T00:07:24.211Z,1002.8
2017-12-10T00:08:24.359Z,1002.85
2017-12-10T00:09:24.380Z,1002.84
2017-12-10T00:10:24.802Z,1002.76
2017-12-10T00:11:25.220Z,1002.78
2017-12-10T00:12:25.291Z,1002.79
2017-12-10T00:13:25.261Z,1002.78
2017-12-10T00:14:25.289Z,1002.74
2017-12-10T00:15:25.471Z,1002.76
2017-12-10T00:16:25.507Z,1002.77
2017-12-10T00:17:25.500Z,1002.8
2017-12-10T00:18:25.527Z,1002.74
2017-12-10T00:19:25.571Z,1002.83
2017-12-10T00:20:25.779Z,1002.76
2017-12-10T00:21:26.203Z,1002.77
2017-12-10T00:22:25.867Z,1002.81
2017-12-10T00:23:26.002Z,1002.7
2017-12-10T00:24:25.977Z,1002.72
2017-12-10T00:25:26.475Z,1002.75
2017-12-10T00:26:26.703Z,1002.76
2017-12-10T00:27:26.521Z,1002.69
2017-12-10T00:28:26.568Z,1002.67
2017-12-10T00:29:26.566Z,1002.79
2017-12-10T00:30:27.045Z,1002.77
2017-12-10T00:31:27.473Z,1002.78
2017-12-10T00:32:27.628Z,1002.74
2017-12-10T00:33:27.622Z,1002.7
2017-12-10T00:34:27.646Z,1002.65
2017-12-10T00:35:27.841Z,1002.67
2017-12-10T00:36:28.102Z,1002.69
2017-12-10T00:37:28.351Z,1002.66
2017-12-10T00:38:28.358Z,1002.65
2017-12-10T00:39:28.806Z,1002.67
2017-12-10T00:40:28.384Z,1002.7
2017-12-10T00:41:28.407Z,1002.7
2017-12-10T00:42:28.452Z,1002.71
2017-12-10T00:43:28.461Z,1002.73
2017-12-10T00:44:28.618Z,1002.72
2017-12-10T00:45:29.045Z,1002.71
2017-12-10T00:46:29.259Z,1002.74
2017-12-10T00:47:29.278Z,1002.69
2017-12-10T00:48:29.719Z,1002.73
2017-12-10T00:49:29.884Z,1002.68
2017-12-10T00:50:30.299Z,1002.65
2017-12-10T00:51:30.067Z,1002.68
2017-12-10T00:52:30.454Z,1002.69
2017-12-10T00:53:30.345Z,1002.68
2017-12-10T00:54:30.015Z,1002.7
2017-12-10T00:55:30.466Z,1002.64
2017-12-10T00:56:30.432Z,1002.72
2017-12-10T00:57:30.172Z,1002.71
2017-12-10T00:58:30.264Z,1002.7
2017-12-10T00:59:30.102Z,1002.69
2017-12-10T01:00:30.375Z,1002.67
2017-12-10T01:01:30.386Z,1002.7
2017-12-10T01:02:30.526Z,1002.66
2017-12-10T01:03:30.596Z,1002.65
2017-12-10T01:04:30.601Z,1002.68
2017-12-10T01:05:30.696Z,1002.72
2017-12-10T01:06:31.209Z,1002.7
2017-12-10T01:07:30.962Z,1002.69
2017-12-10T01:08:31.855Z,1002.62
2017-12-10T01:09:31.453Z,1002.7
2017-12-10T01:10:32.140Z,1002.65
2017-12-10T01:11:32.183Z,1002.69
2017-12-10T01:12:32.401Z,1002.66
2017-12-10T01:13:31.836Z,1002.67
2017-12-10T01:14:31.825Z,1002.67
2017-12-10T01:15:32.256Z,1002.65
2017-12-10T01:16:32.153Z,1002.67
2017-12-10T01:17:32.263Z,1002.68
2017-12-10T01:18:32.131Z,1002.69
2017-12-10T01:19:32.054Z,1002.62
2017-12-10T01:20:31.957Z,1002.66
2017-12-10T01:21:31.971Z,1002.64
2017-12-10T01:22:32.143Z,1002.7
2017-12-10T01:23:32.296Z,1002.65
2017-12-10T01:24:32.580Z,1002.67
2017-12-10T01:25:33.003Z,1002.64
2017-12-10T01:26:33.146Z,1002.61
2017-12-10T01:27:33.170Z,1002.58
2017-12-10T01:28:33.301Z,1002.56
2017-12-10T01:29:33.726Z,1002.59
2017-12-10T01:30:33.744Z,1002.56
2017-12-10T01:31:33.758Z,1002.52
2017-12-10T01:32:33.778Z,1002.53
2017-12-10T01:33:33.854Z,1002.5
2017-12-10T01:34:33.824Z,1002.47
2017-12-10T01:35:33.844Z,1002.44
2017-12-10T01:36:34.064Z,1002.43
2017-12-10T01:37:34.145Z,1002.45
2017-12-10T01:38:34.132Z,1002.42
2017-12-10T01:39:34.303Z,1002.44
2017-12-10T01:40:34.321Z,1002.41
2017-12-10T01:41:34.624Z,1002.35
2017-12-10T01:42:34.650Z,1002.43
2017-12-10T01:43:35.087Z,1002.38
2017-12-10T01:44:35.272Z,1002.42
2017-12-10T01:45:35.316Z,1002.37
2017-12-10T01:46:35.520Z,1002.4
2017-12-10T01:47:35.432Z,1002.4
2017-12-10T01:48:35.263Z,1002.37
2017-12-10T01:49:35.301Z,1002.35
2017-12-10T01:50:35.317Z,1002.29
2017-12-10T01:51:35.302Z,1002.29
2017-12-10T01:52:35.315Z,1002.27
2017-12-10T01:53:35.338Z,1002.26
2017-12-10T01:54:35.403Z,1002.27
2017-12-10T01:55:35.365Z,1002.22
2017-12-10T01:56:35.448Z,1002.24
2017-12-10T01:57:35.519Z,1002.19
2017-12-10T01:59:35.513Z,1002.22
2017-12-10T02:00:35.970Z,1002.19
2017-12-10T02:01:36.173Z,1002.17
2017-12-10T02:02:35.986Z,1002.15
2017-12-10T02:03:36.009Z,1002.13
2017-12-10T02:04:36.412Z,1002.18
2017-12-10T02:05:37.280Z,1002.1
2017-12-10T02:06:36.488Z,1002.09
2017-12-10T02:07:36.922Z,1002.1
2017-12-10T02:08:37.117Z,1002.06
2017-12-10T02:09:37.176Z,1002.05
2017-12-10T02:10:37.338Z,1002.06
2017-12-10T02:11:37.132Z,1002.07
2017-12-10T02:12:37.325Z,1002.05
2017-12-10T02:13:37.343Z,1002.01
2017-12-10T02:14:37.679Z,1001.99
2017-12-10T02:15:37.395Z,1002.01
2017-12-10T02:16:37.411Z,1001.97
2017-12-10T02:17:37.513Z,1001.92
2017-12-10T02:18:37.534Z,1002.01
2017-12-10T02:19:37.575Z,1001.91
2017-12-10T02:20:37.762Z,1001.87
2017-12-10T02:21:37.750Z,1001.9
2017-12-10T02:22:37.905Z,1001.94
2017-12-10T02:23:37.969Z,1001.84
2017-12-10T02:24:37.964Z,1001.81
2017-12-10T02:25:38.085Z,1001.86
2017-12-10T02:26:38.332Z,1001.86
2017-12-10T02:27:38.759Z,1001.79
2017-12-10T02:28:39.157Z,1001.82
2017-12-10T02:29:44.203Z,1001.81
2017-12-10T02:30:44.607Z,1001.72
2017-12-10T02:31:44.791Z,1001.72
2017-12-10T02:32:44.794Z,1001.72
2017-12-10T02:33:44.813Z,1001.71
2017-12-10T02:34:44.975Z,1001.69
2017-12-10T02:35:45.088Z,1001.67
2017-12-10T02:36:45.113Z,1001.67
2017-12-10T02:37:45.130Z,1001.67
2017-12-10T02:38:45.156Z,1001.63
2017-12-10T02:39:49.899Z,1001.59
2017-12-10T02:40:49.935Z,1001.54
2017-12-10T02:41:49.963Z,1001.54
2017-12-10T02:42:49.970Z,1001.53
2017-12-10T02:43:50.375Z,1001.49
2017-12-10T02:44:50.422Z,1001.45
2017-12-10T02:45:50.560Z,1001.48
2017-12-10T02:46:50.645Z,1001.45
2017-12-10T02:47:50.600Z,1001.48
2017-12-10T02:48:50.624Z,1001.45
2017-12-10T02:49:50.786Z,1001.44
2017-12-10T02:50:51.174Z,1001.42
2017-12-10T02:51:57.573Z,1001.4
2017-12-10T02:52:51.558Z,1001.41
2017-12-10T02:53:51.576Z,1001.4
2017-12-10T02:54:51.599Z,1001.42
2017-12-10T02:55:51.619Z,1001.45
2017-12-10T02:56:51.644Z,1001.4
2017-12-10T02:57:51.776Z,1001.37
2017-12-10T02:58:51.796Z,1001.38
2017-12-10T02:59:51.949Z,1001.34
2017-12-10T03:00:52.378Z,1001.32
2017-12-10T03:01:52.531Z,1001.32
2017-12-10T03:04:07.315Z,1001.23
2017-12-10T03:05:07.360Z,1001.23
2017-12-10T03:06:07.505Z,1001.27
2017-12-10T03:07:07.870Z,1001.28
2017-12-10T03:08:07.550Z,1001.32
2017-12-10T03:09:07.567Z,1001.23
2017-12-10T03:10:07.584Z,1001.29
2017-12-10T03:11:07.624Z,1001.32
2017-12-10T03:12:07.632Z,1001.24
2017-12-10T03:13:07.769Z,1001.27
2017-12-10T03:14:08.228Z,1001.21
2017-12-10T03:15:08.245Z,1001.29
2017-12-10T03:16:08.265Z,1001.3
2017-12-10T03:17:08.673Z,1001.21
2017-12-10T03:18:09.592Z,1001.21
2017-12-10T03:20:14.155Z,1001.16
2017-12-10T03:21:14.180Z,1001.15
2017-12-10T03:22:14.503Z,1001.19
2017-12-10T03:24:14.237Z,1001.08
2017-12-10T03:26:14.301Z,1001.05
2017-12-10T03:27:14.305Z,1001.08
2017-12-10T03:29:14.340Z,1001.11
2017-12-10T03:30:28.800Z,1001.12
2017-12-10T03:31:28.832Z,1001.01
2017-12-10T03:32:28.928Z,1000.99
2017-12-10T03:33:28.877Z,1001
2017-12-10T03:34:34.652Z,1000.96
2017-12-10T03:35:34.667Z,1000.89
2017-12-10T03:36:46.267Z,1000.94
2017-12-10T03:37:44.371Z,1000.91
2017-12-10T03:38:44.398Z,1000.95
2017-12-10T03:39:44.425Z,1000.89
2017-12-10T03:40:49.714Z,1000.94
2017-12-10T03:41:50.131Z,1000.89
2017-12-10T03:42:50.151Z,1000.9
2017-12-10T03:43:57.080Z,1000.81
2017-12-10T03:44:56.933Z,1000.85
2017-12-10T03:45:56.955Z,1000.77
2017-12-10T03:46:57.068Z,1000.79
2017-12-10T03:47:57.080Z,1000.85
2017-12-10T03:48:57.093Z,1000.85
2017-12-10T03:49:57.109Z,1000.77
2017-12-10T03:50:57.150Z,1000.73
2017-12-10T03:51:57.157Z,1000.71
2017-12-10T03:52:57.573Z,1000.71
2017-12-10T03:54:03.278Z,1000.7
2017-12-10T03:55:03.303Z,1000.65
2017-12-10T03:56:03.325Z,1000.65
2017-12-10T03:57:03.346Z,1000.61
2017-12-10T03:58:03.366Z,1000.58
2017-12-10T03:59:03.391Z,1000.61
2017-12-10T04:00:03.822Z,1000.61
2017-12-10T04:01:03.863Z,1000.61
2017-12-10T04:03:03.860Z,1000.65
2017-12-10T04:04:09.535Z,1000.7
2017-12-10T04:05:09.689Z,1000.67
2017-12-10T04:06:09.721Z,1000.64
2017-12-10T04:07:09.844Z,1000.71
2017-12-10T04:08:10.235Z,1000.59
2017-12-10T04:09:10.256Z,1000.7
2017-12-10T04:10:10.288Z,1000.65
2017-12-10T04:11:10.554Z,1000.6
2017-12-10T04:12:10.969Z,1000.56
2017-12-10T04:13:11.231Z,1000.59
2017-12-10T04:14:11.198Z,1000.6
2017-12-10T04:15:11.380Z,1000.56
2017-12-10T04:16:11.529Z,1000.62
2017-12-10T04:17:11.830Z,1000.54
2017-12-10T04:18:12.044Z,1000.53
2017-12-10T04:19:12.437Z,1000.53
2017-12-10T04:20:12.470Z,1000.63
2017-12-10T04:21:12.591Z,1000.58
2017-12-10T04:22:12.996Z,1000.56
2017-12-10T04:23:13.020Z,1000.57
2017-12-10T04:24:13.191Z,1000.58
2017-12-10T04:25:13.224Z,1000.53
2017-12-10T04:26:13.368Z,1000.53
2017-12-10T04:27:13.382Z,1000.55
2017-12-10T04:28:13.572Z,1000.51
2017-12-10T04:29:13.591Z,1000.55
2017-12-10T04:30:14.068Z,1000.5
2017-12-10T04:31:14.071Z,1000.58
2017-12-10T04:32:14.091Z,1000.48
2017-12-10T04:33:14.293Z,1000.44
2017-12-10T04:34:14.446Z,1000.42
2017-12-10T04:35:14.462Z,1000.41
2017-12-10T04:36:14.490Z,1000.35
2017-12-10T04:37:14.749Z,1000.48
2017-12-10T04:38:15.170Z,1000.37
2017-12-10T04:39:15.545Z,1000.42
2017-12-10T04:40:15.657Z,1000.4
2017-12-10T04:41:15.822Z,1000.37
2017-12-10T04:42:15.819Z,1000.45
2017-12-10T04:43:15.870Z,1000.4
2017-12-10T04:44:16.056Z,1000.35
2017-12-10T04:45:16.264Z,1000.38
2017-12-10T04:46:16.547Z,1000.44
2017-12-10T04:47:16.557Z,1000.42
2017-12-10T04:48:16.986Z,1000.41
2017-12-10T04:49:17.406Z,1000.34
2017-12-10T04:50:17.423Z,1000.41
2017-12-10T04:51:17.502Z,1000.35
2017-12-10T04:52:17.450Z,1000.35
2017-12-10T04:53:17.470Z,1000.35
2017-12-10T04:54:17.496Z,1000.31
2017-12-10T04:55:17.890Z,1000.28
2017-12-10T04:56:17.921Z,1000.29
2017-12-10T04:57:17.937Z,1000.22
2017-12-10T04:58:17.956Z,1000.26
2017-12-10T04:59:18.367Z,1000.2
2017-12-10T05:00:23.429Z,1000.21
2017-12-10T05:01:23.527Z,1000.14
2017-12-10T05:02:23.447Z,1000.2
2017-12-10T05:03:23.467Z,1000.22
2017-12-10T05:04:23.886Z,1000.14
2017-12-10T05:05:23.900Z,1000.19
2017-12-10T05:06:24.049Z,1000.13
2017-12-10T05:07:24.212Z,1000.13
2017-12-10T05:08:24.616Z,1000.08
2017-12-10T05:09:25.044Z,1000.09
2017-12-10T05:10:25.061Z,1000.09
2017-12-10T05:11:25.510Z,1000.06
2017-12-10T05:12:25.532Z,1000.06
2017-12-10T05:13:25.686Z,1000.04
2017-12-10T05:14:25.565Z,999.99
2017-12-10T05:15:25.584Z,999.98
2017-12-10T05:16:25.610Z,999.99
2017-12-10T05:17:25.634Z,999.94
2017-12-10T05:18:25.648Z,999.9
2017-12-10T05:19:25.668Z,999.88
2017-12-10T05:20:25.688Z,999.83
2017-12-10T05:21:25.715Z,999.81
2017-12-10T05:22:25.733Z,999.79
2017-12-10T05:23:26.135Z,999.86
2017-12-10T05:24:26.556Z,999.7
2017-12-10T05:25:26.587Z,999.73
2017-12-10T05:26:26.612Z,999.67
2017-12-10T05:27:26.614Z,999.75
2017-12-10T05:28:26.970Z,999.72
2017-12-10T05:29:27.082Z,999.65
2017-12-10T05:30:27.098Z,999.63
2017-12-10T05:31:27.532Z,999.68
2017-12-10T05:32:27.557Z,999.63
2017-12-10T05:33:27.572Z,999.6
2017-12-10T05:34:27.981Z,999.63
2017-12-10T05:35:27.999Z,999.61
2017-12-10T05:36:28.381Z,999.62
2017-12-10T05:37:28.388Z,999.53
2017-12-10T05:38:28.524Z,999.47
2017-12-10T05:39:28.933Z,999.46
2017-12-10T05:40:29.088Z,999.44
2017-12-10T05:41:29.236Z,999.41
2017-12-10T05:42:29.645Z,999.43
2017-12-10T05:43:29.667Z,999.5
2017-12-10T05:44:29.687Z,999.38
2017-12-10T05:45:29.854Z,999.43
2017-12-10T05:46:29.872Z,999.41
2017-12-10T05:47:30.328Z,999.36
2017-12-10T05:48:30.336Z,999.51
2017-12-10T05:49:30.366Z,999.37
2017-12-10T05:50:30.377Z,999.4
2017-12-10T05:51:30.406Z,999.37
2017-12-10T05:52:30.846Z,999.35
2017-12-10T05:53:30.860Z,999.36
2017-12-10T05:54:30.887Z,999.3
2017-12-10T05:55:31.269Z,999.34
2017-12-10T05:56:31.289Z,999.34
2017-12-10T05:57:31.749Z,999.31
2017-12-10T05:58:31.905Z,999.32
2017-12-10T05:59:32.332Z,999.33
2017-12-10T06:00:32.345Z,999.37
2017-12-10T06:01:32.365Z,999.34
2017-12-10T06:02:32.394Z,999.36
2017-12-10T06:03:32.769Z,999.19
2017-12-10T06:04:32.816Z,999.18
2017-12-10T06:05:32.818Z,999.13
2017-12-10T06:06:33.215Z,999.2
2017-12-10T06:07:33.226Z,999.15
2017-12-10T06:08:33.255Z,999.13
2017-12-10T06:09:33.961Z,999.07
2017-12-10T06:10:33.981Z,999.05
2017-12-10T06:11:33.957Z,999.06
2017-12-10T06:12:34.019Z,999.02
2017-12-10T06:13:33.994Z,999.04
2017-12-10T06:14:34.600Z,998.94
2017-12-10T06:15:34.577Z,998.97
2017-12-10T06:16:34.583Z,998.94
2017-12-10T06:17:34.530Z,998.93
2017-12-10T06:18:34.819Z,998.97
2017-12-10T06:19:34.833Z,998.94
2017-12-10T06:20:34.786Z,998.89
2017-12-10T06:21:34.854Z,998.88
2017-12-10T06:22:34.861Z,998.9
2017-12-10T06:23:34.847Z,998.89
2017-12-10T06:24:35.320Z,998.88
2017-12-10T06:25:35.336Z,998.82
2017-12-10T06:26:35.751Z,998.81
2017-12-10T06:27:35.929Z,998.78
2017-12-10T06:28:35.946Z,998.81
2017-12-10T06:29:36.330Z,998.78
2017-12-10T06:30:36.781Z,998.73
2017-12-10T06:31:37.202Z,998.7
2017-12-10T06:32:37.582Z,998.69
2017-12-10T06:33:38.002Z,998.63
2017-12-10T06:34:38.694Z,998.63
2017-12-10T06:35:38.696Z,998.58
2017-12-10T06:36:38.716Z,998.68
2017-12-10T06:37:38.872Z,998.54
2017-12-10T06:38:38.891Z,998.53
2017-12-10T06:39:39.083Z,998.56
2017-12-10T06:40:39.350Z,998.58
2017-12-10T06:41:39.377Z,998.58
2017-12-10T06:42:39.397Z,998.53
2017-12-10T06:43:39.400Z,998.52
2017-12-10T06:44:39.821Z,998.44
2017-12-10T06:45:39.818Z,998.45
2017-12-10T06:46:39.834Z,998.42
2017-12-10T06:47:40.008Z,998.4
2017-12-10T06:48:40.486Z,998.37
2017-12-10T06:49:40.469Z,998.44
2017-12-10T06:50:40.499Z,998.38
2017-12-10T06:51:40.550Z,998.37
2017-12-10T06:52:41.016Z,998.33
2017-12-10T06:53:41.050Z,998.33
2017-12-10T06:54:41.068Z,998.35
2017-12-10T06:55:41.339Z,998.42
2017-12-10T06:56:41.126Z,998.39
2017-12-10T06:57:41.148Z,998.36
2017-12-10T06:58:41.139Z,998.41
2017-12-10T06:59:41.598Z,998.35
2017-12-10T07:01:41.645Z,998.34
2017-12-10T07:02:41.656Z,998.35
2017-12-10T07:03:41.679Z,998.32
2017-12-10T07:04:41.816Z,998.29
2017-12-10T07:05:41.997Z,998.27
2017-12-10T07:06:42.419Z,998.2
2017-12-10T07:07:42.542Z,998.19
2017-12-10T07:08:42.576Z,998.12
2017-12-10T07:09:42.607Z,998.07
2017-12-10T07:10:43.076Z,998.11
2017-12-10T07:11:43.288Z,998
2017-12-10T07:12:43.686Z,998.06
2017-12-10T07:13:44.146Z,998.03
2017-12-10T07:14:44.181Z,998.03
2017-12-10T07:15:44.175Z,998.09
2017-12-10T07:16:44.198Z,998.01
2017-12-10T07:17:44.372Z,998.05
2017-12-10T07:18:44.579Z,997.96
2017-12-10T07:19:44.706Z,997.99
2017-12-10T07:20:44.726Z,997.95
2017-12-10T07:21:45.106Z,997.89
2017-12-10T07:22:45.310Z,997.93
2017-12-10T07:23:45.337Z,997.85
2017-12-10T07:24:45.781Z,997.79
2017-12-10T07:25:45.805Z,997.79
2017-12-10T07:26:46.266Z,997.73
2017-12-10T07:27:46.281Z,997.73
2017-12-10T07:28:46.542Z,997.74
2017-12-10T07:29:46.340Z,997.76
2017-12-10T07:30:46.437Z,997.73
2017-12-10T07:31:46.526Z,997.76
2017-12-10T07:32:46.504Z,997.78
2017-12-10T07:33:47.071Z,997.77
2017-12-10T07:34:47.197Z,997.76
2017-12-10T07:35:47.182Z,997.75
2017-12-10T07:36:47.164Z,997.72
2017-12-10T07:37:47.214Z,997.75
2017-12-10T07:38:47.257Z,997.68
2017-12-10T07:39:47.568Z,997.67
2017-12-10T07:40:47.596Z,997.61
2017-12-10T07:41:48.023Z,997.59
2017-12-10T07:42:48.502Z,997.52
2017-12-10T07:43:48.539Z,997.53
2017-12-10T07:44:48.693Z,997.43
2017-12-10T07:45:48.564Z,997.46
2017-12-10T07:46:49.026Z,997.47
2017-12-10T07:47:49.446Z,997.39
2017-12-10T07:48:49.484Z,997.42
2017-12-10T07:49:49.589Z,997.44
2017-12-10T07:50:49.512Z,997.38
2017-12-10T07:51:50.142Z,997.27
2017-12-10T07:52:50.481Z,997.38
2017-12-10T07:53:50.499Z,997.32
2017-12-10T07:54:50.572Z,997.36
2017-12-10T07:55:51.004Z,997.29
2017-12-10T07:56:50.571Z,997.31
2017-12-10T07:57:50.619Z,997.28
2017-12-10T07:58:50.920Z,997.26
2017-12-10T07:59:51.079Z,997.24
2017-12-10T08:00:51.454Z,997.25
2017-12-10T08:01:51.011Z,997.28
2017-12-10T08:02:51.021Z,997.27
2017-12-10T08:03:51.047Z,997.22
2017-12-10T08:04:51.080Z,997.27
2017-12-10T08:05:51.204Z,997.19
2017-12-10T08:06:51.148Z,997.19
2017-12-10T08:07:51.160Z,997.2
2017-12-10T08:08:51.457Z,997.15
2017-12-10T08:09:51.168Z,997.12
2017-12-10T08:10:51.446Z,997.1
2017-12-10T08:11:51.491Z,997.08
2017-12-10T08:12:51.493Z,997.07
2017-12-10T08:13:51.512Z,997.1
2017-12-10T08:14:51.546Z,997.07
2017-12-10T08:15:51.748Z,996.98
2017-12-10T08:16:51.773Z,997.07
2017-12-10T08:17:51.790Z,997.07
2017-12-10T08:18:51.960Z,997.11
2017-12-10T08:19:51.983Z,997.16
2017-12-10T08:20:51.997Z,997.17
2017-12-10T08:21:52.025Z,997.13
2017-12-10T08:22:52.058Z,997.09
2017-12-10T08:23:52.068Z,997.02
2017-12-10T08:24:52.140Z,997.03
2017-12-10T08:25:52.101Z,997.02
2017-12-10T08:26:52.122Z,996.92
2017-12-10T08:27:52.356Z,996.92
2017-12-10T08:28:52.366Z,996.9
2017-12-10T08:29:52.400Z,996.84
2017-12-10T08:30:52.411Z,996.86
2017-12-10T08:31:52.692Z,996.78
2017-12-10T08:32:52.716Z,996.82
2017-12-10T08:33:52.730Z,996.78
2017-12-10T08:34:52.757Z,996.8
2017-12-10T08:35:52.899Z,996.81
2017-12-10T08:36:53.189Z,996.79
2017-12-10T08:37:53.192Z,996.76
2017-12-10T08:38:53.253Z,996.76
2017-12-10T08:39:53.251Z,996.86
2017-12-10T08:40:53.267Z,996.74
2017-12-10T08:41:53.393Z,996.75
2017-12-10T08:42:53.414Z,996.83
2017-12-10T08:43:53.666Z,996.72
2017-12-10T08:44:53.682Z,996.78
2017-12-10T08:45:53.706Z,996.74
2017-12-10T08:46:53.896Z,996.74
2017-12-10T08:47:54.356Z,996.75
2017-12-10T08:48:53.948Z,996.71
2017-12-10T08:49:53.973Z,996.69
2017-12-10T08:50:54.361Z,996.61
2017-12-10T08:51:54.378Z,996.6
2017-12-10T08:52:54.787Z,996.5
2017-12-10T08:53:54.837Z,996.54
2017-12-10T08:54:54.853Z,996.55
2017-12-10T08:55:54.880Z,996.52
2017-12-10T08:56:54.901Z,996.45
2017-12-10T08:57:54.921Z,996.45
2017-12-10T08:58:55.118Z,996.4
2017-12-10T08:59:55.623Z,996.42
2017-12-10T09:00:55.726Z,996.33
2017-12-10T09:01:55.652Z,996.47
2017-12-10T09:02:55.873Z,996.42
2017-12-10T09:03:56.297Z,996.36
2017-12-10T09:04:56.324Z,996.35
2017-12-10T09:05:56.342Z,996.31
2017-12-10T09:06:56.361Z,996.39
2017-12-10T09:07:56.558Z,996.38
2017-12-10T09:08:56.853Z,996.34
2017-12-10T09:09:56.869Z,996.38
2017-12-10T09:10:56.894Z,996.21
2017-12-10T09:11:57.265Z,996.17
2017-12-10T09:12:56.931Z,996.11
2017-12-10T09:13:56.971Z,996.04
2017-12-10T09:14:57.007Z,996.11
2017-12-10T09:15:57.034Z,996.12
2017-12-10T09:16:57.405Z,996.07
2017-12-10T09:17:57.447Z,996.07
2017-12-10T09:18:57.533Z,995.98
2017-12-10T09:19:57.259Z,996.06
2017-12-10T09:20:57.239Z,995.95
2017-12-10T09:21:57.236Z,995.99
2017-12-10T09:22:57.283Z,995.9
2017-12-10T09:24:03.033Z,995.97
2017-12-10T09:25:02.587Z,995.99
2017-12-10T09:26:02.606Z,996
2017-12-10T09:27:02.639Z,995.94
2017-12-10T09:28:03.188Z,995.86
2017-12-10T09:29:04.448Z,995.83
2017-12-10T09:30:04.055Z,995.75
2017-12-10T09:31:04.052Z,995.75
2017-12-10T09:32:04.098Z,995.73
2017-12-10T09:33:04.300Z,995.72
2017-12-10T09:34:04.378Z,995.56
2017-12-10T09:35:04.700Z,995.67
2017-12-10T09:36:05.157Z,995.73
2017-12-10T09:37:05.053Z,995.67
2017-12-10T09:38:05.083Z,995.77
2017-12-10T09:39:05.124Z,995.61
2017-12-10T09:40:05.241Z,995.58
2017-12-10T09:41:05.250Z,995.56
2017-12-10T09:42:05.593Z,995.5
2017-12-10T09:43:05.297Z,995.45
2017-12-10T09:44:05.722Z,995.47
2017-12-10T09:45:05.970Z,995.39
2017-12-10T09:46:05.964Z,995.33
2017-12-10T09:47:05.990Z,995.37
2017-12-10T09:48:06.399Z,995.33
2017-12-10T09:50:06.246Z,995.18
2017-12-10T09:51:06.265Z,995.2
2017-12-10T09:52:06.292Z,995.18
2017-12-10T09:53:06.484Z,995.18
2017-12-10T09:54:06.967Z,995.18
2017-12-10T09:55:07.171Z,995.15
2017-12-10T09:56:07.189Z,995.05
2017-12-10T09:57:07.239Z,995.1
2017-12-10T09:58:07.256Z,995.08
2017-12-10T09:59:07.270Z,995.04
2017-12-10T10:00:07.294Z,994.91
2017-12-10T10:02:17.462Z,994.81
2017-12-10T10:03:17.758Z,994.84
2017-12-10T10:04:17.762Z,994.82
2017-12-10T10:05:17.791Z,994.78
2017-12-10T10:06:17.791Z,994.62
2017-12-10T10:07:18.029Z,994.71
2017-12-10T10:08:17.884Z,994.66
2017-12-10T10:09:17.884Z,994.57
2017-12-10T10:10:17.917Z,994.58
2017-12-10T10:11:17.950Z,994.52
2017-12-10T10:12:17.990Z,994.53
2017-12-10T10:13:18.084Z,994.39
2017-12-10T10:14:18.059Z,994.39
2017-12-10T10:15:18.066Z,994.38
2017-12-10T10:16:18.285Z,994.35
2017-12-10T10:17:19.151Z,994.39
2017-12-10T10:18:19.308Z,994.32
2017-12-10T10:19:19.429Z,994.27
2017-12-10T10:20:19.458Z,994.24
2017-12-10T10:21:19.479Z,994.12
2017-12-10T10:22:19.504Z,994.14
2017-12-10T10:23:19.899Z,994.11
2017-12-10T10:24:20.153Z,994.05
2017-12-10T10:25:20.197Z,994.03
2017-12-10T10:26:20.191Z,994.04
2017-12-10T10:27:20.231Z,993.96
2017-12-10T10:28:20.263Z,993.91
2017-12-10T10:29:20.855Z,993.89
2017-12-10T10:30:20.802Z,993.83
2017-12-10T10:31:20.832Z,993.8
2017-12-10T10:32:20.918Z,993.64
2017-12-10T10:33:31.264Z,993.62
2017-12-10T10:34:31.470Z,993.61
2017-12-10T10:35:31.672Z,993.62
2017-12-10T10:36:31.859Z,993.61
2017-12-10T10:37:31.846Z,993.57
2017-12-10T10:38:31.757Z,993.49
2017-12-10T10:39:31.983Z,993.55
2017-12-10T10:40:31.793Z,993.65
2017-12-10T10:41:31.866Z,993.62
2017-12-10T10:42:31.847Z,993.4
2017-12-10T10:43:31.864Z,993.37
2017-12-10T10:44:32.316Z,993.24
2017-12-10T10:45:42.592Z,993.21
2017-12-10T10:46:42.996Z,993.13
2017-12-10T10:47:43.236Z,993.08
2017-12-10T10:48:43.262Z,993.04
2017-12-10T10:50:43.643Z,993.02
2017-12-10T10:51:43.551Z,992.91
2017-12-10T10:52:43.575Z,992.83
2017-12-10T10:53:43.740Z,992.77
2017-12-10T10:54:44.185Z,992.8
2017-12-10T10:55:44.559Z,992.77
2017-12-10T10:56:44.632Z,992.72
2017-12-10T10:57:44.784Z,992.68
2017-12-10T10:58:44.853Z,992.68
2017-12-10T10:59:44.878Z,992.58
2017-12-10T11:01:49.744Z,992.54
2017-12-10T11:02:49.701Z,992.55
2017-12-10T11:03:49.795Z,992.53
2017-12-10T11:04:49.742Z,992.64
2017-12-10T11:05:49.805Z,992.56
2017-12-10T11:06:49.797Z,992.54
2017-12-10T11:07:49.978Z,992.45
2017-12-10T11:08:49.996Z,992.42
2017-12-10T11:09:50.027Z,992.47
2017-12-10T11:10:50.184Z,992.45
2017-12-10T11:11:50.223Z,992.4
2017-12-10T11:12:50.237Z,992.39
2017-12-10T11:13:50.266Z,992.27
2017-12-10T11:14:50.288Z,992.25
2017-12-10T11:15:50.317Z,992.27
2017-12-10T11:16:50.331Z,992.13
2017-12-10T11:17:50.539Z,992.11
2017-12-10T11:18:50.960Z,992.14
2017-12-10T11:19:50.981Z,992.13
2017-12-10T11:20:51.028Z,992.12
2017-12-10T11:21:51.081Z,992.04
2017-12-10T11:22:51.472Z,992.06
2017-12-10T11:23:51.488Z,992
2017-12-10T11:24:51.822Z,991.98
2017-12-10T11:25:52.070Z,991.9
2017-12-10T11:26:51.872Z,991.82
2017-12-10T11:27:52.323Z,991.81
2017-12-10T11:28:52.291Z,991.82
2017-12-10T11:29:52.319Z,991.67
2017-12-10T11:30:52.404Z,991.71
2017-12-10T11:31:52.448Z,991.73
2017-12-10T11:32:52.439Z,991.68
2017-12-10T11:33:52.598Z,991.58
2017-12-10T11:34:52.756Z,991.61
2017-12-10T11:35:52.770Z,991.49
2017-12-10T11:36:52.838Z,991.5
2017-12-10T11:37:52.828Z,991.44
2017-12-10T11:38:53.240Z,991.42
2017-12-10T11:39:53.235Z,991.28
2017-12-10T11:40:53.577Z,991.3
2017-12-10T11:41:53.316Z,991.31
2017-12-10T11:42:53.331Z,991.26
2017-12-10T11:43:53.514Z,991.27
2017-12-10T11:44:53.540Z,991.16
2017-12-10T11:45:53.567Z,991.15
2017-12-10T11:46:53.610Z,991.12
2017-12-10T11:47:53.606Z,991.13
2017-12-10T11:48:53.673Z,991.12
2017-12-10T11:49:53.654Z,991.08
2017-12-10T11:50:53.652Z,991
2017-12-10T11:51:53.870Z,991
2017-12-10T11:52:53.890Z,990.95
2017-12-10T11:53:54.184Z,990.95
2017-12-10T11:54:54.201Z,990.83
2017-12-10T11:55:54.437Z,990.85
2017-12-10T11:56:54.473Z,990.86
2017-12-10T11:57:54.493Z,990.76
2017-12-10T11:58:54.565Z,990.72
2017-12-10T11:59:54.563Z,990.68
2017-12-10T12:00:54.613Z,990.64
2017-12-10T12:02:03.808Z,990.65
2017-12-10T12:04:03.882Z,990.57
2017-12-10T12:05:03.883Z,990.58
2017-12-10T12:06:03.992Z,990.51
2017-12-10T12:07:04.003Z,990.49
2017-12-10T12:08:04.713Z,990.51
2017-12-10T12:09:04.472Z,990.4
2017-12-10T12:10:04.541Z,990.38
2017-12-10T12:11:04.637Z,990.34
2017-12-10T12:12:04.540Z,990.34
2017-12-10T12:13:04.600Z,990.39
2017-12-10T12:14:04.874Z,990.4
2017-12-10T12:15:04.976Z,990.35
2017-12-10T12:16:04.910Z,990.32
2017-12-10T12:17:04.926Z,990.23
2017-12-10T12:18:05.372Z,990.24
2017-12-10T12:19:05.396Z,990.17
2017-12-10T12:20:05.394Z,990.13
2017-12-10T12:21:05.452Z,990.06
2017-12-10T12:22:05.628Z,990.02
2017-12-10T12:23:06.061Z,990.01
2017-12-10T12:24:06.104Z,989.98
2017-12-10T12:25:06.507Z,989.9
2017-12-10T12:26:06.965Z,989.78
2017-12-10T12:27:06.971Z,989.78
2017-12-10T12:28:07.139Z,989.72
2017-12-10T12:29:07.386Z,989.69
2017-12-10T12:30:07.344Z,989.68
2017-12-10T12:31:07.484Z,989.61
2017-12-10T12:32:07.491Z,989.57
2017-12-10T12:33:07.872Z,989.57
2017-12-10T12:34:08.163Z,989.54
2017-12-10T12:35:08.145Z,989.46
2017-12-10T12:36:08.145Z,989.38
2017-12-10T12:37:08.183Z,989.36
2017-12-10T12:38:08.190Z,989.29